createdAt,value
2022-09-12T00:00:22.069Z,68.38
2022-09-12T00:02:48.703Z,68.62
2022-09-12T00:05:15.121Z,68.59
2022-09-12T00:07:41.628Z,68.24
2022-09-12T00:10:07.890Z,68.58
2022-09-12T00:12:34.357Z,68.54
2022-09-12T00:15:00.654Z,68.58
2022-09-12T00:17:27.037Z,68.19
2022-09-12T00:19:53.580Z,68.32
2022-09-12T00:22:19.824Z,68.31
2022-09-12T00:24:46.109Z,68.39
2022-09-12T00:27:12.486Z,68.25
2022-09-12T00:29:38.793Z,68.35
2022-09-12T00:32:05.099Z,68.14
2022-09-12T00:34:31.518Z,68.40
2022-09-12T00:36:57.836Z,68.33
2022-09-12T00:39:24.465Z,68.46
2022-09-12T00:41:50.745Z,68.01
2022-09-12T00:44:17.140Z,68.00
2022-09-12T00:46:43.508Z,68.25
2022-09-12T00:49:12.000Z,67.95
2022-09-12T00:51:38.448Z,68.36
2022-09-12T00:54:04.777Z,68.34
2022-09-12T00:56:31.122Z,68.04
2022-09-12T00:58:57.420Z,68.29
2022-09-12T01:01:23.809Z,68.20
2022-09-12T01:03:50.206Z,68.23
2022-09-12T01:06:17.005Z,68.25
2022-09-12T01:08:44.516Z,68.41
2022-09-12T01:11:10.873Z,68.05
2022-09-12T01:13:37.121Z,67.96
2022-09-12T01:16:03.488Z,68.18
2022-09-12T01:18:30.160Z,68.26
2022-09-12T01:20:56.573Z,68.25
2022-09-12T01:23:23.117Z,67.86
2022-09-12T01:25:49.681Z,67.96
2022-09-12T01:28:16.279Z,68.12
2022-09-12T01:30:42.598Z,68.13
2022-09-12T01:33:08.948Z,68.19
2022-09-12T01:35:35.306Z,67.87
2022-09-12T01:38:01.571Z,67.96
2022-09-12T01:40:28.015Z,67.93
2022-09-12T01:42:54.362Z,68.12
2022-09-12T01:45:21.034Z,68.10
2022-09-12T01:47:47.337Z,67.68
2022-09-12T01:50:13.696Z,67.75
2022-09-12T01:52:40.087Z,67.84
2022-09-12T01:55:09.562Z,67.85
2022-09-12T01:57:36.392Z,67.68
2022-09-12T02:00:02.760Z,67.68
2022-09-12T02:02:29.134Z,67.91
2022-09-12T02:04:55.523Z,67.54
2022-09-12T02:07:21.898Z,67.68
2022-09-12T02:09:48.220Z,67.65
2022-09-12T02:12:14.565Z,67.90
2022-09-12T02:14:41.107Z,67.57
2022-09-12T02:17:07.505Z,67.64
2022-09-12T02:19:33.945Z,67.53
2022-09-12T02:22:00.219Z,67.66
2022-09-12T02:24:26.597Z,67.66
2022-09-12T02:26:52.914Z,67.48
2022-09-12T02:29:19.438Z,67.65
2022-09-12T02:31:46.460Z,67.64
2022-09-12T02:34:12.752Z,67.42
2022-09-12T02:36:39.060Z,67.60
2022-09-12T02:39:05.499Z,67.40
2022-09-12T02:41:31.742Z,67.54
2022-09-12T02:43:58.079Z,67.37
2022-09-12T02:46:24.344Z,67.57
2022-09-12T02:48:50.650Z,67.29
2022-09-12T02:51:21.508Z,67.45
2022-09-12T02:53:49.734Z,67.51
2022-09-12T02:56:15.992Z,67.44
2022-09-12T02:58:42.289Z,67.43
2022-09-12T03:01:08.619Z,67.39
2022-09-12T03:03:35.051Z,67.49
2022-09-12T03:06:01.619Z,67.59
2022-09-12T03:08:27.905Z,67.45
2022-09-12T03:13:20.839Z,67.28
2022-09-12T03:15:47.409Z,67.14
2022-09-12T03:18:13.865Z,67.15
2022-09-12T03:20:40.626Z,67.12
2022-09-12T03:23:06.888Z,67.54
2022-09-12T03:27:59.791Z,67.35
2022-09-12T03:30:26.169Z,67.27
2022-09-12T03:32:52.754Z,67.26
2022-09-12T03:35:22.817Z,67.14
2022-09-12T03:37:49.520Z,67.13
2022-09-12T03:40:15.950Z,67.10
2022-09-12T03:42:42.209Z,67.30
2022-09-12T03:45:08.501Z,67.33
2022-09-12T03:47:34.788Z,67.33
2022-09-12T03:50:01.160Z,67.20
2022-09-12T03:52:27.790Z,66.97
2022-09-12T03:54:54.419Z,67.02
2022-09-12T03:57:20.849Z,66.98
2022-09-12T03:59:47.323Z,67.40
2022-09-12T04:02:13.613Z,67.26
2022-09-12T04:04:40.137Z,67.04
2022-09-12T04:07:06.518Z,66.91
2022-09-12T04:09:32.800Z,67.02
2022-09-12T04:11:59.122Z,67.40
2022-09-12T04:14:25.633Z,67.23
2022-09-12T04:16:52.001Z,67.21
2022-09-12T04:19:18.386Z,67.25
2022-09-12T04:21:44.635Z,67.32
2022-09-12T04:24:11.035Z,67.27
2022-09-12T04:26:37.396Z,66.99
2022-09-12T04:29:03.663Z,67.16
2022-09-12T04:31:30.216Z,66.79
2022-09-12T04:33:56.654Z,67.05
2022-09-12T04:36:22.960Z,67.39
2022-09-12T04:38:49.243Z,67.03
2022-09-12T04:41:15.789Z,67.01
2022-09-12T04:43:42.205Z,67.25
2022-09-12T04:46:08.576Z,67.27
2022-09-12T04:48:35.127Z,67.44
2022-09-12T04:51:01.485Z,66.87
2022-09-12T04:53:28.114Z,67.18
2022-09-12T04:55:54.504Z,67.44
2022-09-12T04:58:20.866Z,67.01
2022-09-12T05:00:47.246Z,67.27
2022-09-12T05:03:13.585Z,66.88
2022-09-12T05:05:39.890Z,67.23
2022-09-12T05:08:06.952Z,67.18
2022-09-12T05:10:33.435Z,67.23
2022-09-12T05:12:59.942Z,66.94
2022-09-12T05:15:26.441Z,67.04
2022-09-12T05:17:52.730Z,67.08
2022-09-12T05:20:19.018Z,66.87
2022-09-12T05:22:45.357Z,66.97
2022-09-12T05:25:11.862Z,66.99
2022-09-12T05:27:38.172Z,67.07
2022-09-12T05:30:04.617Z,66.88
2022-09-12T05:32:31.002Z,67.23
2022-09-12T05:34:57.438Z,67.28
2022-09-12T05:37:23.853Z,67.35
2022-09-12T05:39:50.239Z,67.01
2022-09-12T05:42:16.521Z,67.50
2022-09-12T05:44:42.853Z,67.04
2022-09-12T05:47:10.053Z,67.35
2022-09-12T05:49:36.999Z,67.40
2022-09-12T05:52:03.329Z,67.20
2022-09-12T05:54:31.661Z,67.54
2022-09-12T05:56:58.196Z,66.96
2022-09-12T05:59:24.559Z,66.96
2022-09-12T06:01:51.090Z,67.57
2022-09-12T06:04:17.372Z,67.08
2022-09-12T06:06:43.638Z,67.25
2022-09-12T06:09:10.141Z,67.39
2022-09-12T06:11:36.641Z,66.92
2022-09-12T06:14:02.985Z,67.33
2022-09-12T06:16:29.579Z,67.01
2022-09-12T06:18:55.949Z,66.70
2022-09-12T06:21:22.325Z,66.81
2022-09-12T06:23:48.794Z,66.71
2022-09-12T06:26:15.197Z,66.57
2022-09-12T06:28:41.578Z,66.85
2022-09-12T06:31:08.099Z,66.97
2022-09-12T06:33:34.390Z,66.83
2022-09-12T06:36:00.692Z,67.17
2022-09-12T06:38:27.023Z,66.81
2022-09-12T06:40:53.289Z,66.82
2022-09-12T06:43:19.598Z,66.86
2022-09-12T06:45:46.092Z,67.19
2022-09-12T06:48:12.703Z,66.80
2022-09-12T06:50:39.055Z,66.99
2022-09-12T06:53:05.396Z,67.01
2022-09-12T06:55:31.782Z,67.07
2022-09-12T06:57:58.094Z,67.33
2022-09-12T07:00:24.510Z,67.20
2022-09-12T07:02:51.101Z,67.26
2022-09-12T07:05:18.080Z,67.25
2022-09-12T07:07:44.633Z,67.22
2022-09-12T07:10:11.241Z,67.36
2022-09-12T07:12:37.534Z,67.32
2022-09-12T07:15:04.038Z,67.32
2022-09-12T07:17:30.730Z,67.16
2022-09-12T07:19:57.198Z,67.34
2022-09-12T07:22:23.709Z,66.90
2022-09-12T07:24:50.036Z,67.36
2022-09-12T07:27:16.635Z,67.07
2022-09-12T07:29:43.017Z,67.29
2022-09-12T07:32:09.478Z,67.36
2022-09-12T07:34:35.798Z,67.43
2022-09-12T07:37:02.099Z,67.19
2022-09-12T07:39:28.513Z,67.05
2022-09-12T07:41:54.829Z,67.54
2022-09-12T07:44:21.485Z,67.23
2022-09-12T07:46:47.822Z,67.16
2022-09-12T07:49:14.117Z,67.51
2022-09-12T07:51:40.766Z,67.63
2022-09-12T07:54:08.165Z,67.44
2022-09-12T07:56:38.717Z,67.21
2022-09-12T07:59:05.541Z,67.52
2022-09-12T08:01:31.864Z,67.39
2022-09-12T08:03:58.238Z,67.28
2022-09-12T08:06:24.726Z,67.51
2022-09-12T08:08:51.205Z,67.13
2022-09-12T08:11:17.486Z,67.06
2022-09-12T08:13:43.833Z,67.21
2022-09-12T08:16:10.687Z,67.30
2022-09-12T08:18:37.089Z,67.36
2022-09-12T08:21:03.496Z,67.56
2022-09-12T08:23:29.865Z,67.23
2022-09-12T08:25:56.253Z,67.64
2022-09-12T08:28:22.780Z,67.29
2022-09-12T08:30:49.248Z,67.29
2022-09-12T08:33:15.534Z,67.52
2022-09-12T08:35:41.873Z,67.57
2022-09-12T08:38:08.934Z,67.10
2022-09-12T08:40:35.618Z,67.47
2022-09-12T08:43:01.949Z,67.46
2022-09-12T08:45:28.249Z,67.62
2022-09-12T08:47:54.848Z,67.45
2022-09-12T08:50:21.194Z,67.47
2022-09-12T08:52:47.694Z,67.15
2022-09-12T08:55:14.057Z,67.45
2022-09-12T08:57:40.554Z,67.79
2022-09-12T09:00:06.976Z,67.73
2022-09-12T09:02:33.299Z,67.78
2022-09-12T09:04:59.661Z,67.66
2022-09-12T09:07:25.879Z,67.50
2022-09-12T09:09:52.691Z,67.47
2022-09-12T09:12:19.050Z,67.32
2022-09-12T09:14:45.473Z,67.79
2022-09-12T09:17:11.973Z,67.59
2022-09-12T09:19:38.294Z,67.47
2022-09-12T09:22:04.677Z,67.86
2022-09-12T09:24:31.025Z,67.74
2022-09-12T09:26:57.336Z,67.84
2022-09-12T09:29:23.613Z,67.52
2022-09-12T09:31:49.935Z,67.70
2022-09-12T09:34:16.276Z,67.54
2022-09-12T09:36:43.038Z,67.94
2022-09-12T09:39:09.377Z,67.70
2022-09-12T09:41:35.790Z,67.82
2022-09-12T09:44:02.149Z,67.54
2022-09-12T09:46:28.652Z,67.78
2022-09-12T09:48:55.024Z,67.92
2022-09-12T09:51:21.346Z,67.88
2022-09-12T09:53:47.621Z,67.83
2022-09-12T09:56:13.968Z,67.67
2022-09-12T09:58:40.347Z,67.76
2022-09-12T10:01:07.516Z,67.83
2022-09-12T10:03:33.802Z,67.60
2022-09-12T10:06:00.111Z,67.61
2022-09-12T10:08:26.546Z,67.66
2022-09-12T10:10:53.036Z,67.28
2022-09-12T10:13:19.416Z,67.49
2022-09-12T10:15:45.776Z,67.82
2022-09-12T10:18:12.238Z,67.46
2022-09-12T10:20:38.492Z,67.87
2022-09-12T10:23:05.006Z,67.43
2022-09-12T10:25:31.439Z,67.87
2022-09-12T10:27:57.720Z,67.67
2022-09-12T10:30:24.078Z,67.62
2022-09-12T10:32:50.422Z,67.70
2022-09-12T10:35:16.730Z,68.06
2022-09-12T10:37:43.103Z,67.66
2022-09-12T10:40:09.687Z,68.07
2022-09-12T10:42:36.077Z,68.00
2022-09-12T10:45:02.362Z,67.95
2022-09-12T10:47:28.694Z,68.09
2022-09-12T10:49:55.233Z,68.00
2022-09-12T10:52:21.525Z,67.69
2022-09-12T10:54:47.914Z,68.04
2022-09-12T10:57:14.898Z,67.55
2022-09-12T10:59:41.553Z,67.94
2022-09-12T11:02:07.900Z,67.30
2022-09-12T11:04:34.290Z,67.76
2022-09-12T11:07:00.585Z,67.45
2022-09-12T11:09:26.973Z,67.84
2022-09-12T11:11:53.682Z,67.66
2022-09-12T11:14:20.164Z,67.68
2022-09-12T11:16:46.609Z,67.77
2022-09-12T11:19:12.971Z,67.61
2022-09-12T11:21:39.462Z,67.63
2022-09-12T11:24:05.766Z,67.38
2022-09-12T11:26:32.140Z,67.36
2022-09-12T11:28:58.496Z,67.55
2022-09-12T11:31:24.935Z,67.49
2022-09-12T11:33:53.931Z,67.73
2022-09-12T11:36:23.005Z,67.74
2022-09-12T11:38:49.285Z,67.80
2022-09-12T11:41:15.705Z,67.79
2022-09-12T11:43:42.149Z,67.51
2022-09-12T11:46:08.732Z,67.56
2022-09-12T11:48:35.310Z,67.51
2022-09-12T11:51:01.746Z,67.27
2022-09-12T11:53:28.372Z,67.54
2022-09-12T11:55:54.727Z,67.20
2022-09-12T11:58:22.105Z,67.39
2022-09-12T12:00:48.361Z,67.55
2022-09-12T12:03:14.882Z,67.21
2022-09-12T12:05:41.275Z,67.47
2022-09-12T12:08:07.881Z,67.44
2022-09-12T12:10:34.326Z,67.30
2022-09-12T12:13:00.629Z,67.44
2022-09-12T12:15:26.998Z,66.93
2022-09-12T12:17:53.270Z,67.09
2022-09-12T12:20:19.593Z,67.48
2022-09-12T12:22:47.053Z,67.09
2022-09-12T12:25:14.763Z,67.46
2022-09-12T12:27:42.921Z,67.49
2022-09-12T12:30:09.442Z,67.26
2022-09-12T12:32:37.253Z,67.14
2022-09-12T12:35:03.594Z,67.17
2022-09-12T12:37:29.909Z,67.50
2022-09-12T12:39:56.342Z,67.29
2022-09-12T12:42:22.700Z,67.48
2022-09-12T12:44:48.952Z,67.52
2022-09-12T12:47:15.466Z,67.45
2022-09-12T12:49:41.814Z,67.44
2022-09-12T12:52:08.147Z,67.24
2022-09-12T12:54:34.538Z,67.52
2022-09-12T12:57:01.057Z,67.31
2022-09-12T12:59:27.913Z,67.63
2022-09-12T13:01:55.312Z,67.20
2022-09-12T13:04:22.108Z,67.44
2022-09-12T13:06:48.413Z,67.62
2022-09-12T13:09:14.709Z,67.51
2022-09-12T13:11:41.177Z,67.63
2022-09-12T13:14:07.524Z,67.31
2022-09-12T13:16:33.801Z,67.73
2022-09-12T13:19:00.218Z,67.58
2022-09-12T13:21:26.693Z,67.78
2022-09-12T13:23:53.217Z,67.78
2022-09-12T13:26:19.587Z,67.31
2022-09-12T13:28:46.090Z,67.97
2022-09-12T13:31:12.630Z,67.48
2022-09-12T13:33:39.027Z,68.03
2022-09-12T13:36:05.560Z,67.65
2022-09-12T13:38:32.862Z,67.25
2022-09-12T13:40:59.374Z,67.03
2022-09-12T13:43:26.262Z,67.17
2022-09-12T13:45:52.582Z,66.18
2022-09-12T13:48:18.966Z,65.38
2022-09-12T13:50:45.464Z,65.70
2022-09-12T13:53:12.050Z,64.99
2022-09-12T13:55:38.449Z,64.97
2022-09-12T13:58:04.793Z,65.01
2022-09-12T14:00:31.142Z,65.25
2022-09-12T14:02:57.625Z,65.64
2022-09-12T14:05:23.929Z,65.40
2022-09-12T14:07:50.622Z,64.46
2022-09-12T14:10:17.014Z,63.59
2022-09-12T14:12:43.518Z,64.95
2022-09-12T14:15:09.974Z,64.76
2022-09-12T14:17:36.543Z,65.27
2022-09-12T14:20:02.895Z,65.10
2022-09-12T14:22:29.285Z,64.93
2022-09-12T14:24:55.713Z,65.28
2022-09-12T14:27:22.238Z,64.90
2022-09-12T14:29:48.521Z,64.99
2022-09-12T14:32:14.830Z,65.38
2022-09-12T14:34:41.168Z,65.61
2022-09-12T14:37:08.464Z,65.58
2022-09-12T14:39:35.027Z,65.76
2022-09-12T14:42:01.551Z,65.73
2022-09-12T14:44:28.105Z,65.44
2022-09-12T14:49:20.769Z,65.54
2022-09-12T14:51:51.118Z,66.07
2022-09-12T14:54:18.145Z,66.05
2022-09-12T14:56:45.860Z,66.32
2022-09-12T14:59:12.227Z,66.11
2022-09-12T15:01:38.819Z,66.47
2022-09-12T15:04:05.260Z,65.56
2022-09-12T15:06:31.545Z,65.50
2022-09-12T15:08:58.063Z,66.11
2022-09-12T15:11:24.673Z,66.27
2022-09-12T15:13:51.101Z,65.63
2022-09-12T15:23:37.059Z,66.15
2022-09-12T15:26:03.605Z,66.18
2022-09-12T15:28:30.653Z,65.76
2022-09-12T15:30:57.061Z,66.10
2022-09-12T15:33:23.410Z,65.76
2022-09-12T15:35:50.112Z,66.47
2022-09-12T15:38:16.726Z,66.05
2022-09-12T15:40:43.293Z,66.13
2022-09-12T15:43:09.704Z,66.18
2022-09-12T15:45:36.266Z,66.18
2022-09-12T15:48:02.657Z,66.71
2022-09-12T15:50:28.960Z,66.72
2022-09-12T15:52:55.412Z,66.56
2022-09-12T15:55:21.673Z,66.80
2022-09-12T15:57:48.006Z,66.76
2022-09-12T16:00:14.320Z,66.69
2022-09-12T16:02:40.747Z,67.00
2022-09-12T16:05:07.063Z,66.63
2022-09-12T16:07:33.514Z,67.20
2022-09-12T16:09:59.796Z,67.20
2022-09-12T16:12:26.072Z,67.16
2022-09-12T16:14:52.677Z,67.01
2022-09-12T16:17:18.984Z,66.99
2022-09-12T16:19:45.525Z,67.18
2022-09-12T16:22:11.860Z,67.11
2022-09-12T16:24:38.178Z,67.51
2022-09-12T16:27:04.719Z,67.23
2022-09-12T16:29:31.060Z,67.71
2022-09-12T16:31:57.490Z,67.53
2022-09-12T16:34:24.039Z,67.47
2022-09-12T16:36:50.417Z,67.73
2022-09-12T16:39:16.753Z,67.46
2022-09-12T16:41:43.890Z,67.66
2022-09-12T16:44:10.451Z,67.40
2022-09-12T16:46:36.889Z,67.92
2022-09-12T16:49:03.226Z,67.63
2022-09-12T16:51:29.581Z,67.68
2022-09-12T16:53:55.913Z,67.69
2022-09-12T16:56:22.261Z,67.71
2022-09-12T16:58:48.880Z,68.00
2022-09-12T17:01:15.671Z,67.87
2022-09-12T17:03:42.047Z,67.83
2022-09-12T17:06:08.744Z,68.22
2022-09-12T17:08:35.133Z,68.10
2022-09-12T17:11:01.404Z,68.09
2022-09-12T17:13:41.312Z,68.00
2022-09-12T17:16:14.496Z,68.05
2022-09-12T17:18:40.933Z,68.15
2022-09-12T17:21:07.369Z,68.49
2022-09-12T17:23:33.797Z,68.50
2022-09-12T17:26:00.237Z,68.53
2022-09-12T17:28:26.689Z,68.37
2022-09-12T17:30:53.012Z,68.31
2022-09-12T17:33:19.621Z,68.37
2022-09-12T17:35:45.883Z,68.37
2022-09-12T17:38:15.487Z,68.49
2022-09-12T17:40:59.010Z,68.58
2022-09-12T17:43:26.810Z,68.76
2022-09-12T17:45:53.158Z,68.40
2022-09-12T17:48:19.602Z,68.62
2022-09-12T17:50:45.922Z,68.83
2022-09-12T17:53:12.553Z,68.79
2022-09-12T17:55:38.902Z,68.54
2022-09-12T17:58:05.223Z,68.59
2022-09-12T18:00:31.524Z,69.09
2022-09-12T18:02:57.888Z,69.19
2022-09-12T18:05:24.458Z,69.12
2022-09-12T18:07:51.222Z,69.21
2022-09-12T18:10:17.692Z,69.44
2022-09-12T18:12:44.072Z,69.26
2022-09-12T18:15:10.418Z,69.54
2022-09-12T18:17:36.669Z,69.24
2022-09-12T18:20:02.980Z,69.78
2022-09-12T18:22:29.529Z,69.28
2022-09-12T18:24:55.881Z,69.67
2022-09-12T18:27:22.223Z,69.71
2022-09-12T18:30:04.222Z,69.83
2022-09-12T18:32:35.194Z,70.08
2022-09-12T18:35:01.785Z,70.04
2022-09-12T18:37:28.165Z,70.18
2022-09-12T18:39:54.535Z,70.17
2022-09-12T18:42:20.848Z,69.73
2022-09-12T18:44:47.165Z,70.20
2022-09-12T18:47:13.621Z,70.32
2022-09-12T18:49:40.146Z,70.15
2022-09-12T18:52:06.445Z,70.17
2022-09-12T18:54:32.903Z,70.45
2022-09-12T18:56:59.218Z,70.43
2022-09-12T18:59:25.701Z,70.46
2022-09-12T19:01:52.027Z,70.34
2022-09-12T19:04:18.366Z,70.44
2022-09-12T19:06:44.739Z,70.76
2022-09-12T19:09:11.406Z,70.73
2022-09-12T19:11:37.762Z,70.39
2022-09-12T19:14:04.193Z,70.71
2022-09-12T19:16:30.705Z,70.82
2022-09-12T19:18:57.000Z,71.01
2022-09-12T19:21:23.466Z,70.88
2022-09-12T19:23:50.125Z,70.50
2022-09-12T19:26:16.558Z,71.02
2022-09-12T19:28:42.989Z,70.99
2022-09-12T19:31:09.493Z,71.08
2022-09-12T19:33:36.228Z,71.22
2022-09-12T19:36:02.608Z,71.25
2022-09-12T19:38:28.853Z,71.25
2022-09-12T19:40:55.328Z,71.14
2022-09-12T19:43:21.678Z,70.86
2022-09-12T19:45:47.901Z,71.24
2022-09-12T19:48:14.234Z,71.00
2022-09-12T19:50:40.744Z,71.14
2022-09-12T19:53:07.113Z,71.20
2022-09-12T19:55:33.390Z,71.45
2022-09-12T19:57:59.735Z,70.96
2022-09-12T20:00:26.349Z,71.38
2022-09-12T20:02:52.650Z,71.41
2022-09-12T20:05:18.966Z,70.87
2022-09-12T20:07:45.401Z,71.35
2022-09-12T20:10:11.692Z,71.43
2022-09-12T20:12:38.908Z,71.32
2022-09-12T20:15:05.517Z,71.15
2022-09-12T20:17:31.925Z,71.21
2022-09-12T20:19:59.037Z,71.32
2022-09-12T20:22:25.444Z,71.12
2022-09-12T20:24:51.831Z,71.45
2022-09-12T20:27:18.174Z,71.35
2022-09-12T20:29:44.492Z,71.15
2022-09-12T20:32:10.801Z,71.63
2022-09-12T20:34:37.136Z,71.59
2022-09-12T20:37:03.506Z,71.35
2022-09-12T20:39:29.938Z,71.63
2022-09-12T20:41:56.285Z,71.28
2022-09-12T20:44:22.676Z,71.35
2022-09-12T20:46:49.256Z,71.63
2022-09-12T20:49:15.729Z,71.33
2022-09-12T20:51:42.026Z,71.63
2022-09-12T20:54:08.437Z,71.54
2022-09-12T20:56:34.794Z,71.71
2022-09-12T20:59:01.364Z,71.71
2022-09-12T21:01:27.667Z,71.32
2022-09-12T21:03:54.278Z,71.58
2022-09-12T21:06:20.786Z,71.09
2022-09-12T21:08:47.218Z,71.68
2022-09-12T21:11:14.136Z,71.21
2022-09-12T21:13:40.491Z,71.46
2022-09-12T21:16:06.951Z,71.37
2022-09-12T21:18:33.260Z,71.48
2022-09-12T21:21:00.032Z,71.85
2022-09-12T21:23:26.648Z,71.82
2022-09-12T21:25:53.002Z,71.92
2022-09-12T21:28:19.359Z,71.84
2022-09-12T21:30:46.191Z,71.75
2022-09-12T21:33:12.689Z,71.62
2022-09-12T21:35:39.041Z,71.90
2022-09-12T21:38:05.357Z,71.49
2022-09-12T21:40:31.968Z,71.44
2022-09-12T21:42:58.829Z,71.43
2022-09-12T21:45:25.115Z,71.41
2022-09-12T21:47:51.479Z,71.41
2022-09-12T21:50:17.877Z,71.43
2022-09-12T21:52:44.398Z,71.76
2022-09-12T21:55:11.215Z,71.39
2022-09-12T21:57:38.164Z,71.41
2022-09-12T22:00:04.654Z,71.32
2022-09-12T22:02:33.731Z,71.66
2022-09-12T22:05:00.081Z,71.55
2022-09-12T22:07:27.436Z,71.15
2022-09-12T22:09:53.851Z,71.66
2022-09-12T22:12:20.366Z,71.06
2022-09-12T22:14:46.724Z,71.45
2022-09-12T22:17:13.125Z,71.26
2022-09-12T22:19:39.596Z,71.11
2022-09-12T22:22:05.920Z,71.28
2022-09-12T22:24:32.526Z,71.40
2022-09-12T22:26:58.854Z,71.02
2022-09-12T22:29:25.112Z,71.40
2022-09-12T22:31:52.035Z,71.02
2022-09-12T22:34:18.358Z,70.96
2022-09-12T22:36:44.634Z,71.43
2022-09-12T22:39:11.144Z,70.95
2022-09-12T22:41:37.689Z,71.25
2022-09-12T22:44:03.938Z,71.09
2022-09-12T22:46:30.268Z,71.22
2022-09-12T22:48:56.651Z,71.16
2022-09-12T22:51:23.018Z,70.75
2022-09-12T22:53:49.401Z,71.05
2022-09-12T22:56:15.797Z,70.86
2022-09-12T22:58:42.157Z,71.04
2022-09-12T23:01:08.650Z,70.71
2022-09-12T23:03:35.065Z,70.83
2022-09-12T23:06:01.431Z,69.94
2022-09-12T23:08:27.742Z,69.86
2022-09-12T23:10:54.037Z,70.91
2022-09-12T23:13:20.442Z,70.31
2022-09-12T23:15:46.939Z,69.77
2022-09-12T23:18:14.447Z,69.81
2022-09-12T23:20:41.205Z,69.66
2022-09-12T23:23:07.538Z,69.41
2022-09-12T23:25:33.930Z,69.68
2022-09-12T23:28:00.367Z,69.62
2022-09-12T23:30:26.734Z,69.04
2022-09-12T23:32:53.017Z,69.32
2022-09-12T23:35:19.518Z,68.82
2022-09-12T23:37:45.850Z,68.88
2022-09-12T23:40:12.247Z,68.92
2022-09-12T23:42:38.774Z,68.93
2022-09-12T23:45:05.153Z,69.19
2022-09-12T23:47:31.492Z,68.68
2022-09-12T23:49:57.987Z,69.04
2022-09-12T23:52:24.313Z,68.61
2022-09-12T23:54:50.683Z,68.44
2022-09-12T23:57:17.069Z,68.51
2022-09-12T23:59:43.350Z,68.85
